Time;durP1;ratioP1;P1;durP2;ratioP2;P2;SDS_P1;SDS_P2;PMS_P1;PMS_P2;Temp;Humidity;BMP_temperature;BMP_pressure;BME280_temperature;BME280_humidity;BME280_pressure;Samples;Min_cycle;Max_cycle;Signal;HPM_P1;HPM_P2
2021/06/03 00:01:19;;;;;;;3.70;3.40;;;20.40;86.30;;;;;;5070600;28;20174;-54
2021/06/03 00:03:44;;;;;;;5.20;3.40;;;20.50;86.30;;;;;;5070240;28;20658;-54
2021/06/03 00:06:10;;;;;;;5.70;3.60;;;20.50;87.20;;;;;;5070308;28;20537;-54
2021/06/03 00:08:36;;;;;;;5.20;3.23;;;20.40;88.70;;;;;;5070017;28;20194;-56
2021/06/03 00:11:10;;;;;;;4.13;3.60;;;20.50;89.40;;;;;;5070084;28;20645;-55
2021/06/03 00:13:39;;;;;;;3.77;3.47;;;20.60;89.10;;;;;;5070249;28;20520;-56
2021/06/03 00:16:08;;;;;;;4.30;3.90;;;20.60;89.10;;;;;;5069648;28;20447;-56
2021/06/03 00:18:34;;;;;;;3.47;3.17;;;20.70;88.90;;;;;;5068236;28;20960;-56
2021/06/03 00:21:00;;;;;;;5.33;3.60;;;20.60;89.60;;;;;;5069743;28;20404;-56
2021/06/03 00:23:26;;;;;;;4.10;3.30;;;20.60;90.10;;;;;;5069879;28;20404;-54
2021/06/03 00:25:52;;;;;;;3.83;3.50;;;20.60;89.40;;;;;;5069720;28;20253;-54
2021/06/03 00:28:18;;;;;;;4.10;3.80;;;20.60;90.10;;;;;;5069366;28;20194;-56
2021/06/03 00:30:43;;;;;;;4.30;3.90;;;20.40;90.40;;;;;;5069598;28;20219;-53
2021/06/03 00:33:09;;;;;;;4.07;3.30;;;20.20;91.00;;;;;;5070729;28;20410;-56
2021/06/03 00:35:35;;;;;;;3.87;3.53;;;20.20;91.40;;;;;;5069321;28;20186;-54
2021/06/03 00:38:01;;;;;;;3.70;3.10;;;20.00;92.00;;;;;;5069445;28;20419;-55
2021/06/03 00:40:27;;;;;;;4.53;4.13;;;20.10;92.00;;;;;;5069324;28;20595;-53
2021/06/03 00:42:53;;;;;;;4.17;3.87;;;20.10;91.90;;;;;;5069849;28;20170;-51
2021/06/03 00:45:23;;;;;;;3.77;3.47;;;20.00;92.20;;;;;;5069757;28;20251;-56
2021/06/03 00:47:50;;;;;;;4.10;3.70;;;20.00;92.40;;;;;;5069275;28;20423;-56
2021/06/03 00:50:19;;;;;;;4.27;3.87;;;19.90;93.20;;;;;;5069341;28;20409;-55
2021/06/03 00:52:45;;;;;;;4.07;3.57;;;19.90;93.10;;;;;;5069742;28;20457;-56
2021/06/03 00:55:11;;;;;;;4.50;3.93;;;19.70;93.60;;;;;;5070295;28;20460;-56
2021/06/03 00:57:37;;;;;;;4.07;3.70;;;19.70;93.80;;;;;;5069784;28;20442;-54
2021/06/03 01:00:09;;;;;;;4.47;4.07;;;19.70;94.30;;;;;;5069856;28;20416;-56
2021/06/03 01:02:34;;;;;;;5.27;4.40;;;19.60;94.00;;;;;;5069097;28;20166;-56
2021/06/03 01:05:01;;;;;;;4.50;4.07;;;19.50;94.10;;;;;;5068932;28;20405;-55
2021/06/03 01:07:26;;;;;;;4.60;4.20;;;19.40;94.30;;;;;;5057868;28;20269;-55
2021/06/03 01:10:12;;;;;;;4.60;4.20;;;19.30;94.90;;;;;;5048381;28;20521;-55
2021/06/03 01:13:09;;;;;;;5.40;4.47;;;19.20;95.20;;;;;;5055302;28;20175;-56
2021/06/03 01:15:38;;;;;;;5.00;4.60;;;19.20;94.80;;;;;;5046988;28;20465;-56
2021/06/03 01:18:05;;;;;;;4.83;4.47;;;19.20;95.10;;;;;;5055288;28;20502;-56
2021/06/03 01:20:33;;;;;;;7.73;4.50;;;19.10;95.50;;;;;;5055328;28;20414;-56
2021/06/03 01:23:06;;;;;;;5.33;4.67;;;18.90;95.90;;;;;;5071516;28;20783;-56
2021/06/03 01:25:32;;;;;;;5.67;4.50;;;19.00;96.10;;;;;;5055649;28;20432;-56
2021/06/03 01:28:03;;;;;;;6.70;4.30;;;18.90;96.10;;;;;;5055295;28;20429;-56
2021/06/03 01:30:46;;;;;;;5.37;4.60;;;18.80;96.20;;;;;;5055949;28;20477;-53
2021/06/03 01:33:15;;;;;;;5.50;5.00;;;18.80;96.30;;;;;;5055633;28;20393;-52
2021/06/03 01:35:45;;;;;;;6.30;4.20;;;18.80;96.30;;;;;;5054904;28;20488;-52
2021/06/03 01:38:14;;;;;;;5.80;5.20;;;18.80;96.40;;;;;;5054729;28;20428;-54
2021/06/03 01:40:43;;;;;;;4.90;4.43;;;18.80;96.60;;;;;;5055160;28;20471;-51
2021/06/03 01:43:11;;;;;;;4.23;3.93;;;18.90;96.80;;;;;;5055094;28;20741;-50
2021/06/03 01:45:37;;;;;;;6.40;4.70;;;19.00;96.70;;;;;;5054963;28;20433;-52
2021/06/03 01:48:05;;;;;;;4.93;4.43;;;19.00;96.50;;;;;;5054981;28;20734;-50
2021/06/03 01:50:32;;;;;;;5.63;4.10;;;19.00;96.70;;;;;;5054748;28;20471;-56
2021/06/03 01:53:00;;;;;;;4.97;4.50;;;19.00;96.80;;;;;;5054760;28;20401;-51
2021/06/03 01:55:27;;;;;;;5.50;5.00;;;19.00;97.10;;;;;;5054439;28;20457;-51
2021/06/03 01:57:53;;;;;;;4.60;4.20;;;19.00;96.90;;;;;;5099245;22;20593;-58
2021/06/03 02:00:20;;;;;;;5.40;4.90;;;18.90;97.30;;;;;;5095569;28;20403;-59
2021/06/03 02:02:46;;;;;;;5.30;4.70;;;18.70;97.90;;;;;;5095235;28;20388;-59
2021/06/03 02:05:13;;;;;;;4.63;4.23;;;18.70;98.10;;;;;;5095220;28;20747;-58
2021/06/03 02:07:38;;;;;;;4.73;4.33;;;18.70;98.20;;;;;;5095301;28;20423;-58
2021/06/03 02:10:06;;;;;;;5.20;4.70;;;18.70;98.80;;;;;;5096062;28;20406;-59
2021/06/03 02:12:35;;;;;;;4.73;4.33;;;18.60;99.30;;;;;;5096283;28;20177;-59
2021/06/03 02:15:04;;;;;;;10.13;4.40;;;18.50;99.90;;;;;;5096996;28;20954;-58
2021/06/03 02:17:34;;;;;;;5.13;4.67;;;18.50;99.90;;;;;;5096217;28;20443;-59
2021/06/03 02:20:19;;;;;;;5.10;4.70;;;18.50;99.90;;;;;;5096596;28;20407;-59
2021/06/03 02:22:49;;;;;;;4.93;4.53;;;18.50;99.90;;;;;;5097356;28;20548;-58
2021/06/03 02:25:15;;;;;;;4.20;3.90;;;18.50;99.90;;;;;;5097437;28;20733;-58
2021/06/03 02:27:43;;;;;;;4.83;4.43;;;18.60;99.90;;;;;;5097784;28;20443;-58
2021/06/03 02:30:10;;;;;;;5.10;4.70;;;18.50;99.90;;;;;;5076031;28;20404;-58
2021/06/03 02:32:37;;;;;;;4.80;4.30;;;18.50;99.90;;;;;;5076387;28;20400;-59
2021/06/03 02:35:09;;;;;;;4.50;4.10;;;18.60;99.90;;;;;;5075820;28;20443;-57
2021/06/03 02:37:38;;;;;;;3.63;3.33;;;18.80;99.90;;;;;;5058055;28;20443;-56
2021/06/03 02:40:08;;;;;;;5.07;4.60;;;19.00;99.90;;;;;;5076197;28;20431;-59
2021/06/03 02:42:34;;;;;;;4.90;4.50;;;19.20;99.90;;;;;;5076159;28;20409;-59
2021/06/03 02:45:00;;;;;;;4.93;4.53;;;19.20;99.90;;;;;;5076367;28;20825;-58
2021/06/03 02:47:27;;;;;;;4.70;4.30;;;19.20;99.90;;;;;;5075496;28;20466;-59
2021/06/03 02:49:53;;;;;;;4.70;4.30;;;19.20;99.90;;;;;;5074241;28;20627;-58
2021/06/03 02:52:18;;;;;;;5.47;5.07;;;19.20;99.90;;;;;;5073868;28;20419;-58
2021/06/03 02:54:44;;;;;;;4.57;4.17;;;19.20;99.90;;;;;;5073616;28;20444;-58
2021/06/03 02:57:10;;;;;;;4.80;4.43;;;19.20;99.90;;;;;;5073865;28;20697;-58
2021/06/03 02:59:35;;;;;;;4.50;4.20;;;19.20;99.90;;;;;;5073829;28;20162;-59
2021/06/03 03:02:01;;;;;;;5.20;4.80;;;19.20;99.90;;;;;;5073933;28;20252;-59
2021/06/03 03:04:27;;;;;;;5.13;4.73;;;19.20;99.90;;;;;;5069136;28;20199;-58
2021/06/03 03:06:52;;;;;;;4.70;4.30;;;19.10;99.90;;;;;;5093909;28;20170;-59
2021/06/03 03:09:18;;;;;;;5.00;4.50;;;19.20;99.90;;;;;;5094041;28;20519;-58
2021/06/03 03:11:43;;;;;;;4.90;4.50;;;19.20;99.90;;;;;;5093852;28;20170;-57
2021/06/03 03:14:09;;;;;;;5.17;4.67;;;19.20;99.90;;;;;;5094045;28;20169;-58
2021/06/03 03:16:35;;;;;;;4.37;3.97;;;19.20;99.90;;;;;;5093742;28;20161;-59
2021/06/03 03:19:00;;;;;;;4.60;4.30;;;19.40;99.90;;;;;;5093627;28;20185;-56
2021/06/03 03:21:26;;;;;;;6.67;4.90;;;19.50;99.90;;;;;;5093695;28;20630;-59
2021/06/03 03:23:51;;;;;;;4.30;3.90;;;19.60;99.90;;;;;;5093636;28;20161;-59
2021/06/03 03:26:17;;;;;;;4.10;3.80;;;19.60;99.90;;;;;;5093496;28;20177;-59
2021/06/03 03:28:43;;;;;;;4.27;3.83;;;19.60;99.90;;;;;;5093644;28;20204;-57
2021/06/03 03:31:08;;;;;;;4.27;3.87;;;19.60;99.90;;;;;;5093844;28;20194;-59
2021/06/03 03:33:34;;;;;;;4.03;3.73;;;19.60;99.90;;;;;;5093767;28;20275;-59
2021/06/03 03:36:00;;;;;;;5.10;4.30;;;19.60;99.90;;;;;;5093619;28;20193;-58
2021/06/03 03:38:26;;;;;;;4.87;4.37;;;19.60;99.90;;;;;;5093513;28;20596;-54
2021/06/03 03:40:52;;;;;;;5.10;4.70;;;19.50;99.90;;;;;;5093363;28;20538;-57
2021/06/03 03:43:18;;;;;;;4.53;4.13;;;19.60;99.90;;;;;;5093597;28;20396;-55
2021/06/03 03:45:45;;;;;;;4.60;4.20;;;19.50;99.90;;;;;;5075042;28;20842;-54
2021/06/03 03:48:11;;;;;;;4.80;4.33;;;19.30;99.90;;;;;;5093226;28;20189;-57
2021/06/03 03:50:37;;;;;;;5.33;4.93;;;19.30;99.90;;;;;;5093314;28;20403;-59
2021/06/03 03:53:04;;;;;;;5.27;4.87;;;19.20;99.90;;;;;;5093211;28;20260;-59
2021/06/03 03:55:30;;;;;;;5.20;4.80;;;19.30;99.90;;;;;;5093294;28;20812;-59
2021/06/03 03:57:56;;;;;;;4.77;4.37;;;19.30;99.90;;;;;;5093146;28;20445;-58
2021/06/03 04:00:33;;;;;;;4.80;4.40;;;19.30;99.90;;;;;;5093335;28;20176;-59
2021/06/03 04:02:59;;;;;;;5.57;5.07;;;19.40;99.90;;;;;;5092156;28;20177;-58
2021/06/03 04:05:25;;;;;;;5.27;4.77;;;19.30;99.90;;;;;;5093277;28;20422;-59
2021/06/03 04:07:51;;;;;;;5.00;4.60;;;19.40;99.90;;;;;;5093159;28;20442;-59
2021/06/03 04:10:19;;;;;;;5.67;5.00;;;19.40;99.90;;;;;;5093014;28;20407;-59
2021/06/03 04:12:46;;;;;;;5.27;4.80;;;19.40;99.90;;;;;;5093607;28;20258;-59
2021/06/03 04:15:13;;;;;;;5.03;4.63;;;19.40;99.90;;;;;;5092957;28;20443;-59
2021/06/03 04:17:39;;;;;;;4.40;4.10;;;19.30;99.90;;;;;;5093499;28;20446;-58
2021/06/03 04:20:09;;;;;;;4.70;4.30;;;19.40;99.90;;;;;;5092833;28;20395;-59
2021/06/03 04:22:34;;;;;;;5.30;4.90;;;19.40;99.90;;;;;;5092957;28;20391;-59
2021/06/03 04:25:00;;;;;;;4.20;3.90;;;19.40;99.90;;;;;;5092965;28;20888;-58
2021/06/03 04:27:26;;;;;;;5.10;4.60;;;19.50;99.90;;;;;;5092973;28;20242;-59
2021/06/03 04:29:51;;;;;;;4.40;4.10;;;19.60;99.90;;;;;;5096617;28;20160;-59
2021/06/03 04:32:18;;;;;;;4.70;4.30;;;19.70;99.90;;;;;;5113526;28;20234;-59
2021/06/03 04:34:43;;;;;;;4.97;4.60;;;19.60;99.90;;;;;;5113328;28;20207;-57
2021/06/03 04:37:10;;;;;;;4.57;4.17;;;19.60;99.90;;;;;;5113128;28;21002;-58
2021/06/03 04:39:35;;;;;;;4.47;4.13;;;19.80;99.90;;;;;;5113816;28;20640;-58
2021/06/03 04:42:01;;;;;;;4.90;4.50;;;19.90;99.90;;;;;;5114865;28;20402;-58
2021/06/03 04:44:26;;;;;;;4.93;4.50;;;20.00;99.90;;;;;;5116956;28;20165;-59
2021/06/03 04:46:52;;;;;;;4.23;3.87;;;20.10;99.90;;;;;;5116894;28;20173;-59
2021/06/03 04:49:18;;;;;;;4.40;4.10;;;20.20;99.90;;;;;;5116907;28;20274;-59
2021/06/03 04:51:44;;;;;;;4.80;4.40;;;20.30;99.90;;;;;;5117158;28;20165;-59
2021/06/03 04:54:09;;;;;;;4.80;4.40;;;20.40;99.90;;;;;;5117021;28;20153;-59
2021/06/03 04:56:35;;;;;;;5.20;4.70;;;20.40;99.90;;;;;;5101647;28;20900;-59
2021/06/03 04:59:01;;;;;;;4.53;4.23;;;20.40;99.90;;;;;;5075959;28;20206;-55
2021/06/03 05:01:27;;;;;;;5.17;4.77;;;20.50;99.90;;;;;;5076079;28;20212;-58
2021/06/03 05:03:53;;;;;;;5.30;4.80;;;20.60;99.90;;;;;;5076080;28;20642;-58
2021/06/03 05:06:19;;;;;;;5.50;5.10;;;20.60;99.90;;;;;;5075956;28;20249;-59
2021/06/03 05:08:45;;;;;;;5.47;4.97;;;20.40;99.90;;;;;;5075878;28;20416;-59
2021/06/03 05:11:10;;;;;;;5.03;4.63;;;20.30;99.90;;;;;;5075829;28;20419;-59
2021/06/03 05:13:36;;;;;;;5.17;4.77;;;20.10;99.90;;;;;;5076146;28;20166;-58
2021/06/03 05:16:02;;;;;;;5.50;5.00;;;20.00;99.90;;;;;;5075730;28;20190;-59
2021/06/03 05:18:28;;;;;;;4.77;4.40;;;20.10;99.90;;;;;;5074401;28;20186;-59
2021/06/03 05:20:54;;;;;;;5.30;4.90;;;20.10;99.90;;;;;;5075694;28;20828;-58
2021/06/03 05:23:20;;;;;;;4.73;4.33;;;20.10;99.90;;;;;;5075698;28;20158;-59
2021/06/03 05:25:46;;;;;;;4.27;3.97;;;20.30;99.90;;;;;;5074309;28;20177;-59
2021/06/03 05:28:13;;;;;;;6.33;5.17;;;20.40;99.90;;;;;;5075512;28;20917;-59
2021/06/03 05:30:39;;;;;;;4.97;4.57;;;20.60;99.90;;;;;;5075479;28;20396;-59
2021/06/03 05:33:05;;;;;;;4.57;4.23;;;20.70;99.90;;;;;;5075694;28;20415;-59
2021/06/03 05:35:30;;;;;;;4.53;4.13;;;20.60;99.90;;;;;;5075368;28;20669;-58
2021/06/03 05:37:56;;;;;;;4.93;4.43;;;20.80;99.90;;;;;;5075479;28;20529;-57
2021/06/03 05:40:24;;;;;;;4.97;4.57;;;20.90;99.90;;;;;;5075684;28;20582;-58
2021/06/03 05:42:51;;;;;;;4.77;4.27;;;21.00;99.90;;;;;;5075616;28;20177;-59
2021/06/03 05:45:17;;;;;;;5.13;4.73;;;21.00;99.90;;;;;;5075223;28;20427;-59
2021/06/03 05:47:43;;;;;;;5.20;4.70;;;21.10;99.90;;;;;;5075190;28;20436;-59
2021/06/03 05:50:11;;;;;;;4.97;4.57;;;21.30;99.90;;;;;;5075509;28;20174;-59
2021/06/03 05:52:38;;;;;;;5.17;4.77;;;21.50;99.90;;;;;;5074917;28;20170;-59
2021/06/03 05:55:05;;;;;;;5.03;4.63;;;21.50;99.90;;;;;;5074292;28;20840;-59
2021/06/03 05:57:31;;;;;;;6.50;5.90;;;21.80;99.90;;;;;;5089634;28;20492;-59
2021/06/03 05:59:56;;;;;;;5.07;4.67;;;21.80;99.90;;;;;;5095158;28;20810;-57
2021/06/03 06:02:32;;;;;;;4.33;4.03;;;22.00;99.90;;;;;;5094930;28;20170;-57
2021/06/03 06:07:42;;;;;;;5.40;5.00;;;22.30;99.90;;;;;;5095433;28;20430;-59
2021/06/03 06:10:08;;;;;;;5.43;5.03;;;22.30;99.90;;;;;;5095489;28;20888;-58
2021/06/03 06:12:34;;;;;;;5.30;4.87;;;22.10;99.90;;;;;;5094551;28;20197;-58
2021/06/03 06:15:00;;;;;;;4.77;4.37;;;22.00;99.90;;;;;;5095200;28;20487;-59
2021/06/03 06:17:26;;;;;;;5.20;4.80;;;22.00;99.90;;;;;;5094937;28;20189;-59
2021/06/03 06:19:51;;;;;;;4.27;3.93;;;22.10;99.90;;;;;;5094760;28;20299;-57
2021/06/03 06:22:17;;;;;;;4.97;4.40;;;22.20;99.90;;;;;;5101818;28;20197;-58
2021/06/03 06:24:45;;;;;;;4.33;4.03;;;22.30;99.90;;;;;;5115598;28;20632;-59
2021/06/03 06:27:11;;;;;;;5.20;4.80;;;22.50;99.90;;;;;;5114905;28;20180;-59
2021/06/03 06:29:37;;;;;;;4.60;4.20;;;22.70;99.90;;;;;;5115299;28;20493;-59
2021/06/03 06:32:03;;;;;;;4.33;4.03;;;22.70;99.90;;;;;;5115185;28;20169;-59
2021/06/03 06:34:28;;;;;;;4.17;3.87;;;22.80;99.90;;;;;;5114731;28;20188;-59
2021/06/03 06:36:54;;;;;;;4.47;4.07;;;22.80;99.90;;;;;;5114685;28;20621;-59
2021/06/03 06:39:19;;;;;;;5.27;4.13;;;22.90;99.90;;;;;;5114690;28;20171;-59
2021/06/03 06:41:45;;;;;;;4.50;4.00;;;22.90;99.90;;;;;;5114843;28;20682;-59
2021/06/03 06:44:11;;;;;;;5.37;4.97;;;22.90;99.90;;;;;;5114932;28;20157;-58
2021/06/03 06:46:37;;;;;;;4.03;3.73;;;22.80;99.90;;;;;;5114762;28;20838;-53
2021/06/03 06:49:03;;;;;;;4.67;4.27;;;22.70;99.90;;;;;;5114404;28;20196;-56
2021/06/03 06:51:29;;;;;;;5.17;4.73;;;22.60;99.90;;;;;;5114860;28;20583;-55
2021/06/03 06:53:54;;;;;;;4.53;4.20;;;22.60;99.90;;;;;;5113013;28;20406;-59
2021/06/03 06:56:20;;;;;;;4.97;4.57;;;22.50;99.90;;;;;;5103080;28;20192;-60
2021/06/03 06:58:46;;;;;;;4.30;3.87;;;22.50;99.90;;;;;;5114265;28;20204;-59
2021/06/03 07:01:11;;;;;;;4.23;3.93;;;22.40;99.90;;;;;;5114691;28;20185;-56
2021/06/03 07:03:37;;;;;;;3.80;3.50;;;22.40;99.90;;;;;;5114221;28;20164;-59
2021/06/03 07:06:03;;;;;;;4.00;3.70;;;22.30;99.90;;;;;;5114127;28;20270;-59
2021/06/03 07:08:28;;;;;;;4.80;4.30;;;22.40;99.90;;;;;;5096313;28;20231;-59
2021/06/03 07:10:55;;;;;;;4.60;3.63;;;22.50;99.90;;;;;;5114590;28;20539;-60
2021/06/03 07:13:21;;;;;;;5.43;4.70;;;22.60;99.90;;;;;;5114381;28;20167;-59
2021/06/03 07:15:47;;;;;;;4.23;3.90;;;22.70;99.90;;;;;;5113920;28;20543;-60
2021/06/03 07:18:13;;;;;;;3.43;3.20;;;22.70;99.90;;;;;;5113883;28;20887;-59
2021/06/03 07:20:39;;;;;;;4.00;3.70;;;22.80;99.90;;;;;;5108207;28;20170;-60
2021/06/03 07:23:05;;;;;;;3.60;3.30;;;22.90;99.90;;;;;;5098968;28;20442;-59
2021/06/03 07:25:33;;;;;;;3.70;3.40;;;22.90;99.90;;;;;;5099016;28;20649;-58
2021/06/03 07:28:00;;;;;;;3.80;3.50;;;22.90;99.90;;;;;;5093582;28;20435;-58
2021/06/03 07:30:26;;;;;;;4.10;3.80;;;22.90;99.90;;;;;;5093764;28;20457;-60
2021/06/03 07:32:53;;;;;;;4.50;4.10;;;22.90;99.90;;;;;;5093476;28;20490;-59
2021/06/03 07:35:20;;;;;;;7.53;6.00;;;23.00;99.90;;;;;;5093339;28;20447;-60
2021/06/03 07:37:46;;;;;;;4.80;4.37;;;23.10;99.90;;;;;;5093788;28;20840;-58
2021/06/03 07:40:16;;;;;;;4.57;4.17;;;23.30;99.90;;;;;;5094212;28;20394;-58
2021/06/03 07:42:41;;;;;;;4.37;4.07;;;23.40;99.90;;;;;;5094807;28;20460;-61
2021/06/03 07:45:10;;;;;;;3.80;3.50;;;23.50;99.90;;;;;;5094918;28;20395;-60
2021/06/03 07:47:39;;;;;;;3.30;3.00;;;23.70;99.90;;;;;;5094953;28;20192;-60
2021/06/03 07:50:06;;;;;;;5.33;3.20;;;23.90;99.90;;;;;;5095613;28;21002;-61
2021/06/03 07:52:34;;;;;;;3.60;3.00;;;23.90;99.90;;;;;;5094586;28;20833;-58
2021/06/03 07:54:59;;;;;;;4.70;3.27;;;24.00;99.90;;;;;;5094330;28;20435;-61
2021/06/03 07:57:25;;;;;;;5.57;4.90;;;24.00;99.90;;;;;;5095910;28;20444;-49
2021/06/03 07:59:50;;;;;;;7.20;4.53;;;23.90;99.90;;;;;;5095020;28;20167;-52
2021/06/03 08:02:16;;;;;;;4.93;4.37;;;23.90;99.90;;;;;;5095125;28;20315;-55
2021/06/03 08:04:41;;;;;;;7.17;5.73;;;23.80;99.90;;;;;;5093431;28;20169;-54
2021/06/03 08:07:07;;;;;;;5.80;5.30;;;23.70;99.90;;;;;;5093597;28;20722;-53
2021/06/03 08:09:33;;;;;;;4.00;3.60;;;23.70;99.90;;;;;;5093575;28;20158;-51
2021/06/03 08:11:59;;;;;;;3.50;3.10;;;23.90;99.90;;;;;;5093227;28;20157;-55
2021/06/03 08:14:24;;;;;;;5.43;2.73;;;24.00;99.90;;;;;;5093289;28;20169;-53
2021/06/03 08:16:50;;;;;;;4.37;3.97;;;24.00;99.90;;;;;;5094598;28;20464;-53
2021/06/03 08:19:17;;;;;;;4.57;4.17;;;24.00;99.90;;;;;;5097464;28;20634;-53
2021/06/03 08:21:42;;;;;;;4.30;3.70;;;24.30;99.90;;;;;;5109475;28;20542;-55
2021/06/03 08:24:08;;;;;;;3.73;3.47;;;24.30;99.90;;;;;;5117393;28;20401;-52
2021/06/03 08:26:34;;;;;;;3.93;3.63;;;24.30;99.90;;;;;;5117623;28;20177;-54
2021/06/03 08:28:59;;;;;;;4.30;3.40;;;24.60;99.90;;;;;;5117080;28;20275;-51
2021/06/03 08:31:26;;;;;;;3.50;3.00;;;24.50;99.30;;;;;;5117290;28;20224;-53
2021/06/03 08:33:53;;;;;;;3.40;2.77;;;24.50;99.50;;;;;;5117363;28;20669;-55
2021/06/03 08:36:18;;;;;;;3.00;2.70;;;24.50;98.90;;;;;;5117061;28;20584;-54
2021/06/03 08:38:44;;;;;;;3.57;3.27;;;24.60;99.10;;;;;;5117454;28;20458;-54
2021/06/03 08:41:10;;;;;;;4.70;2.67;;;24.60;98.50;;;;;;5117527;28;20165;-54
2021/06/03 08:43:35;;;;;;;3.40;2.60;;;24.70;98.30;;;;;;5117121;28;20164;-55
2021/06/03 08:46:04;;;;;;;2.80;2.60;;;24.90;98.90;;;;;;5117161;28;20637;-53
2021/06/03 08:48:30;;;;;;;2.83;2.30;;;24.90;98.00;;;;;;5116847;28;20653;-52
2021/06/03 08:51:00;;;;;;;2.40;2.20;;;25.30;98.40;;;;;;5117022;28;20394;-50
2021/06/03 08:53:26;;;;;;;3.60;3.30;;;25.60;97.40;;;;;;5116941;28;20399;-51
2021/06/03 08:58:37;;;;;;;4.90;4.37;;;25.50;98.20;;;;;;5116983;28;20529;-52
2021/06/03 09:01:04;;;;;;;4.87;3.83;;;25.60;98.50;;;;;;5116758;28;20402;-51
2021/06/03 09:03:31;;;;;;;5.03;3.60;;;25.30;98.70;;;;;;5116763;28;20397;-54
2021/06/03 09:05:57;;;;;;;4.13;3.60;;;25.50;98.70;;;;;;5116434;28;20398;-51
2021/06/03 09:08:34;;;;;;;4.37;4.03;;;25.50;99.10;;;;;;5116482;28;20461;-51
2021/06/03 09:11:10;;;;;;;6.27;3.60;;;25.70;98.40;;;;;;5116692;28;20389;-53
2021/06/03 09:13:38;;;;;;;4.10;2.63;;;26.00;99.00;;;;;;5116460;28;20893;-51
2021/06/03 09:16:10;;;;;;;2.37;2.17;;;26.20;97.80;;;;;;5116343;28;20457;-53
2021/06/03 09:18:37;;;;;;;3.00;2.70;;;26.20;96.60;;;;;;5116294;28;20922;-52
2021/06/03 09:21:13;;;;;;;4.57;3.03;;;25.80;96.80;;;;;;5097879;28;20414;-52
2021/06/03 09:23:41;;;;;;;3.10;2.57;;;25.80;97.50;;;;;;5116622;28;20395;-51
2021/06/03 09:26:12;;;;;;;2.93;2.73;;;26.10;97.00;;;;;;5116130;28;20399;-51
2021/06/03 09:28:43;;;;;;;3.10;2.90;;;26.30;96.40;;;;;;5115904;28;20454;-51
2021/06/03 09:31:09;;;;;;;3.80;2.93;;;26.60;96.40;;;;;;5116067;28;20397;-52
2021/06/03 09:33:43;;;;;;;3.40;3.10;;;26.50;96.00;;;;;;5116207;28;20403;-51
2021/06/03 09:36:19;;;;;;;3.83;3.17;;;26.60;96.10;;;;;;5116125;28;20453;-50
2021/06/03 09:38:54;;;;;;;3.43;2.73;;;26.70;96.70;;;;;;5116009;28;20479;-53
2021/06/03 09:41:21;;;;;;;2.90;2.70;;;26.70;96.50;;;;;;5116088;28;20469;-52
2021/06/03 09:43:47;;;;;;;4.20;3.70;;;26.90;96.20;;;;;;5116308;28;20771;-53
2021/06/03 09:46:17;;;;;;;4.40;3.70;;;26.90;96.60;;;;;;5115910;28;20403;-54
2021/06/03 09:48:47;;;;;;;4.10;3.50;;;26.90;95.80;;;;;;5115663;28;20434;-51
2021/06/03 09:51:26;;;;;;;3.30;2.73;;;27.00;95.60;;;;;;5115982;28;20383;-52
2021/06/03 09:54:09;;;;;;;2.87;2.67;;;27.10;94.30;;;;;;5115914;28;20399;-53
2021/06/03 09:56:43;;;;;;;2.90;2.70;;;27.30;94.30;;;;;;5115558;28;20445;-52
2021/06/03 09:59:20;;;;;;;2.77;2.57;;;27.60;93.70;;;;;;5115938;28;20828;-52
2021/06/03 10:01:55;;;;;;;3.50;3.20;;;27.60;93.80;;;;;;5115634;28;20375;-54
2021/06/03 10:04:29;;;;;;;3.37;2.63;;;27.60;93.00;;;;;;5115746;28;20836;-52
2021/06/03 10:07:08;;;;;;;2.57;2.37;;;27.40;93.50;;;;;;5115258;28;20378;-50
2021/06/03 10:09:55;;;;;;;4.00;3.33;;;27.40;92.80;;;;;;5115641;28;20397;-49
2021/06/03 10:12:23;;;;;;;4.70;2.90;;;27.40;93.70;;;;;;5115696;28;20378;-50
2021/06/03 10:14:50;;;;;;;2.80;2.60;;;27.40;92.80;;;;;;5112169;28;20448;-50
2021/06/03 10:17:45;;;;;;;2.63;2.00;;;27.50;92.00;;;;;;5105192;28;20430;-48
2021/06/03 10:20:33;;;;;;;3.70;2.30;;;27.40;92.30;;;;;;5115574;28;20790;-54
2021/06/03 10:22:59;;;;;;;2.23;2.03;;;27.50;91.70;;;;;;5114783;28;20379;-54
2021/06/03 10:25:27;;;;;;;5.00;2.43;;;27.40;92.30;;;;;;5079988;28;20491;-54
2021/06/03 10:27:59;;;;;;;2.23;1.87;;;27.40;91.60;;;;;;5074436;28;20196;-52
2021/06/03 10:30:36;;;;;;;2.73;2.40;;;27.40;91.10;;;;;;5074650;28;20400;-54
2021/06/03 10:33:14;;;;;;;3.07;1.97;;;27.70;91.10;;;;;;5073216;28;20764;-55
2021/06/03 10:35:43;;;;;;;4.07;2.20;;;27.70;90.80;;;;;;5074130;28;20526;-53
2021/06/03 10:38:10;;;;;;;3.37;2.17;;;27.80;90.10;;;;;;5074266;28;20474;-54
2021/06/03 10:40:39;;;;;;;3.00;2.00;;;27.80;90.20;;;;;;5073326;28;20434;-53
2021/06/03 10:43:06;;;;;;;2.50;2.20;;;28.00;89.50;;;;;;5074127;28;20388;-54
2021/06/03 10:45:35;;;;;;;3.83;1.93;;;28.00;89.60;;;;;;5074097;28;20412;-54
2021/06/03 10:48:00;;;;;;;2.03;1.90;;;28.00;87.10;;;;;;5074048;28;20887;-54
2021/06/03 10:50:31;;;;;;;2.97;1.77;;;28.40;88.50;;;;;;5074001;28;20443;-54
2021/06/03 10:53:08;;;;;;;3.03;1.97;;;28.70;86.20;;;;;;5074225;28;20158;-53
2021/06/03 10:55:53;;;;;;;3.40;1.70;;;28.80;84.00;;;;;;5074217;28;20435;-51
2021/06/03 10:58:30;;;;;;;1.67;1.37;;;29.00;84.60;;;;;;5073821;28;20956;-54
2021/06/03 11:01:17;;;;;;;1.70;1.40;;;28.90;82.30;;;;;;5073868;28;20476;-54
2021/06/03 11:03:54;;;;;;;1.77;1.57;;;28.80;83.70;;;;;;5074208;28;20414;-54
2021/06/03 11:06:22;;;;;;;2.77;1.90;;;29.00;80.50;;;;;;5073706;28;20384;-51
2021/06/03 11:08:50;;;;;;;5.60;2.23;;;28.60;81.90;;;;;;5073521;28;20455;-48
2021/06/03 11:11:15;;;;;;;2.00;1.80;;;28.70;81.80;;;;;;5073824;28;20423;-50
2021/06/03 11:13:47;;;;;;;2.37;1.90;;;29.00;83.30;;;;;;5073648;28;20401;-50
2021/06/03 11:16:19;;;;;;;2.40;2.10;;;29.20;81.20;;;;;;5073508;28;20281;-53
2021/06/03 11:18:45;;;;;;;2.40;2.07;;;29.30;82.20;;;;;;5074059;28;20424;-54
2021/06/03 11:23:59;;;;;;;2.00;1.90;;;29.60;80.80;;;;;;5073644;28;20569;-54
2021/06/03 11:26:52;;;;;;;2.53;2.33;;;29.90;78.90;;;;;;5072162;28;20411;-54
2021/06/03 11:29:32;;;;;;;2.67;2.13;;;30.10;77.70;;;;;;5070340;28;20428;-53
2021/06/03 11:32:01;;;;;;;1.60;1.50;;;29.70;79.60;;;;;;5073484;28;20838;-54
2021/06/03 11:34:42;;;;;;;4.00;2.30;;;29.60;79.10;;;;;;5072024;28;20409;-54
2021/06/03 11:37:34;;;;;;;2.90;2.30;;;28.70;84.50;;;;;;5073660;28;20782;-54
2021/06/03 11:40:05;;;;;;;3.17;2.43;;;28.20;90.00;;;;;;5064767;28;20413;-55
2021/06/03 11:42:35;;;;;;;3.00;2.27;;;28.00;90.20;;;;;;5073712;28;20407;-51
2021/06/03 11:45:03;;;;;;;2.80;2.13;;;27.80;90.50;;;;;;5073450;28;20404;-51
2021/06/03 11:47:54;;;;;;;2.40;2.10;;;27.60;90.90;;;;;;5073465;28;20432;-50
2021/06/03 11:50:20;;;;;;;2.77;2.10;;;27.80;90.70;;;;;;5073262;28;20750;-49
2021/06/03 11:53:02;;;;;;;3.60;2.30;;;29.30;88.10;;;;;;5073387;28;20404;-50
2021/06/03 11:55:34;;;;;;;3.90;2.13;;;30.20;82.40;;;;;;5073302;28;20269;-52
2021/06/03 11:58:18;;;;;;;2.47;2.27;;;29.80;83.70;;;;;;5072740;28;20538;-52
2021/06/03 12:00:50;;;;;;;2.87;2.37;;;29.10;85.90;;;;;;5073308;28;20402;-51
2021/06/03 12:03:26;;;;;;;2.40;2.20;;;28.50;87.90;;;;;;5073153;28;20432;-55
2021/06/03 12:05:55;;;;;;;3.57;2.67;;;28.20;88.70;;;;;;5073127;28;20392;-54
2021/06/03 12:08:48;;;;;;;3.00;2.23;;;28.10;90.20;;;;;;5071666;28;20435;-54
2021/06/03 12:11:15;;;;;;;3.00;2.80;;;27.70;90.40;;;;;;5072948;28;20504;-53
2021/06/03 12:13:42;;;;;;;3.87;2.80;;;27.40;91.20;;;;;;5072815;28;20404;-52
2021/06/03 12:16:09;;;;;;;3.00;2.70;;;27.20;92.00;;;;;;5072901;28;20839;-55
2021/06/03 12:18:40;;;;;;;2.60;2.40;;;27.00;92.10;;;;;;5073006;28;20846;-54
2021/06/03 12:21:09;;;;;;;2.60;2.40;;;26.90;92.00;;;;;;5073112;28;20403;-55
2021/06/03 12:23:48;;;;;;;2.70;2.50;;;26.90;92.10;;;;;;5072760;28;20904;-54
2021/06/03 12:26:18;;;;;;;2.90;2.60;;;27.00;92.30;;;;;;5078689;28;20809;-54
2021/06/03 12:28:44;;;;;;;3.33;2.50;;;27.10;92.80;;;;;;5073085;28;20423;-54
2021/06/03 12:31:25;;;;;;;4.10;2.70;;;27.00;92.90;;;;;;5072897;28;20408;-51
2021/06/03 12:33:50;;;;;;;3.77;2.43;;;26.90;93.50;;;;;;5073160;28;20162;-52
2021/06/03 12:36:17;;;;;;;7.47;4.60;;;27.10;95.30;;;;;;5072739;28;20570;-55
2021/06/03 12:38:47;;;;;;;15.20;5.87;;;27.00;96.30;;;;;;5072963;28;20202;-54
2021/06/03 12:41:22;;;;;;;9.70;5.00;;;26.60;99.90;;;;;;5072688;28;20427;-54
2021/06/03 12:44:15;;;;;;;14.80;7.50;;;25.00;99.90;;;;;;5072703;28;20403;-54
2021/06/03 12:46:55;;;;;;;4.40;4.00;;;23.70;99.90;;;;;;5070401;28;20465;-54
2021/06/03 12:49:27;;;;;;;5.90;4.10;;;23.10;99.90;;;;;;5072990;28;20467;-54
2021/06/03 12:51:52;;;;;;;8.70;4.07;;;22.60;99.90;;;;;;5073205;28;20468;-51
2021/06/03 12:54:29;;;;;;;4.70;3.40;;;22.40;99.90;;;;;;5073381;28;20490;-53
2021/06/03 12:56:58;;;;;;;6.47;4.20;;;22.40;99.90;;;;;;5072778;28;20295;-52
2021/06/03 12:59:25;;;;;;;6.23;4.10;;;22.20;99.90;;;;;;5072950;28;20381;-52
2021/06/03 13:01:55;;;;;;;6.87;5.00;;;22.40;99.90;;;;;;5072881;28;20395;-54